createdAt,value
2024-02-15T00:01:06.680Z,8.50
2024-02-15T00:03:52.023Z,8.50
2024-02-15T00:06:19.021Z,8.80
2024-02-15T00:08:46.122Z,7.53
2024-02-15T00:11:14.850Z,8.83
2024-02-15T00:13:42.130Z,8.50
2024-02-15T00:16:09.080Z,10.10
2024-02-15T00:18:36.170Z,8.77
2024-02-15T00:21:03.146Z,8.90
2024-02-15T00:23:30.116Z,9.10
2024-02-15T00:25:57.038Z,9.90
2024-02-15T00:28:25.096Z,11.00
2024-02-15T00:30:52.013Z,9.37
2024-02-15T00:33:19.009Z,9.30
2024-02-15T00:35:46.249Z,9.87
2024-02-15T00:38:13.157Z,10.03
2024-02-15T00:40:41.096Z,9.30
2024-02-15T00:43:08.010Z,10.97
2024-02-15T00:45:34.937Z,9.80
2024-02-15T00:48:02.060Z,8.87
2024-02-15T00:50:29.331Z,9.10
2024-02-15T00:52:56.417Z,9.80
2024-02-15T00:55:23.400Z,9.90
2024-02-15T00:57:50.335Z,9.53
2024-02-15T01:00:17.479Z,9.90
2024-02-15T01:02:44.461Z,9.73
2024-02-15T01:05:11.511Z,9.80
2024-02-15T01:07:38.555Z,9.30
2024-02-15T01:10:07.112Z,10.00
2024-02-15T01:12:34.199Z,10.40
2024-02-15T01:15:01.155Z,10.30
2024-02-15T01:17:28.216Z,10.37
2024-02-15T01:19:55.259Z,10.00
2024-02-15T01:22:24.868Z,10.33
2024-02-15T01:24:51.912Z,9.13
2024-02-15T01:27:18.859Z,9.60
2024-02-15T01:29:45.783Z,9.90
2024-02-15T01:32:12.723Z,9.93
2024-02-15T01:34:39.664Z,9.70
2024-02-15T01:37:06.707Z,10.17
2024-02-15T01:39:33.647Z,9.83
2024-02-15T01:42:00.653Z,10.27
2024-02-15T01:44:28.005Z,9.00
2024-02-15T01:46:55.688Z,10.50
2024-02-15T01:49:28.777Z,9.87
2024-02-15T01:51:58.200Z,10.90
2024-02-15T01:54:26.073Z,11.20
2024-02-15T01:56:53.972Z,10.30
2024-02-15T01:59:24.093Z,10.90
2024-02-15T02:01:52.007Z,11.27
2024-02-15T02:04:18.906Z,11.07
2024-02-15T02:06:45.870Z,10.00
2024-02-15T02:09:17.014Z,10.90
2024-02-15T02:11:47.629Z,11.43
2024-02-15T02:14:14.824Z,12.10
2024-02-15T02:16:41.742Z,11.83
2024-02-15T02:19:10.536Z,12.23
2024-02-15T02:21:39.964Z,11.80
2024-02-15T02:24:22.525Z,12.20
2024-02-15T02:26:50.294Z,11.60
2024-02-15T02:29:17.711Z,11.70
2024-02-15T02:31:44.649Z,12.20
2024-02-15T02:34:12.017Z,11.90
2024-02-15T02:36:39.200Z,12.47
2024-02-15T02:39:06.242Z,11.67
2024-02-15T02:41:33.382Z,13.00
2024-02-15T02:44:00.436Z,12.03
2024-02-15T02:46:27.401Z,13.20
2024-02-15T02:48:54.513Z,10.73
2024-02-15T02:51:21.639Z,11.90
2024-02-15T02:53:48.760Z,13.83
2024-02-15T02:56:16.017Z,10.97
2024-02-15T02:58:45.722Z,10.43
2024-02-15T03:01:12.843Z,12.07
2024-02-15T03:03:40.825Z,10.83
2024-02-15T03:06:08.045Z,11.97
2024-02-15T03:08:35.386Z,12.20
2024-02-15T03:11:02.834Z,13.67
2024-02-15T03:13:30.376Z,10.73
2024-02-15T03:15:57.331Z,12.03
2024-02-15T03:18:25.647Z,12.63
2024-02-15T03:20:53.079Z,12.10
2024-02-15T03:23:20.134Z,12.60
2024-02-15T03:25:47.090Z,12.20
2024-02-15T03:28:14.873Z,11.60
2024-02-15T03:30:41.775Z,12.17
2024-02-15T03:33:08.771Z,13.07
2024-02-15T03:35:36.440Z,12.47
2024-02-15T03:38:03.483Z,12.93
2024-02-15T03:40:31.500Z,12.40
2024-02-15T03:42:58.833Z,11.70
2024-02-15T03:45:27.139Z,12.30
2024-02-15T03:47:55.042Z,12.33
2024-02-15T03:50:23.185Z,10.13
2024-02-15T03:52:51.655Z,11.73
2024-02-15T03:55:18.907Z,10.07
2024-02-15T03:57:47.672Z,11.27
2024-02-15T04:00:22.596Z,10.40
2024-02-15T04:02:50.486Z,9.93
2024-02-15T04:05:19.517Z,10.70
2024-02-15T04:07:46.773Z,11.53
2024-02-15T04:10:14.136Z,9.03
2024-02-15T04:12:43.308Z,10.20
2024-02-15T04:15:15.658Z,11.20
2024-02-15T04:17:43.812Z,9.27
2024-02-15T04:20:13.304Z,10.60
2024-02-15T04:22:43.592Z,9.60
2024-02-15T04:25:11.557Z,8.73
2024-02-15T04:27:38.638Z,9.10
2024-02-15T04:30:06.128Z,9.70
2024-02-15T04:32:35.582Z,9.30
2024-02-15T04:35:04.359Z,8.93
2024-02-15T04:37:33.640Z,8.10
2024-02-15T04:40:09.318Z,8.80
2024-02-15T04:42:40.710Z,8.50
2024-02-15T04:45:13.745Z,7.87
2024-02-15T04:47:44.636Z,7.83
2024-02-15T04:50:12.149Z,7.03
2024-02-15T04:52:39.569Z,7.13
2024-02-15T04:55:06.989Z,7.40
2024-02-15T04:57:36.153Z,7.80
2024-02-15T05:00:10.404Z,7.20
2024-02-15T05:02:41.424Z,7.83
2024-02-15T05:05:09.260Z,7.43
2024-02-15T05:07:38.622Z,7.90
2024-02-15T05:10:07.744Z,7.70
2024-02-15T05:12:34.832Z,7.40
2024-02-15T05:15:02.019Z,7.93
2024-02-15T05:17:31.057Z,7.33
2024-02-15T05:20:00.309Z,7.80
2024-02-15T05:22:30.348Z,7.73
2024-02-15T05:24:57.256Z,6.73
2024-02-15T05:27:24.578Z,7.83
2024-02-15T05:29:53.846Z,7.73
2024-02-15T05:32:21.334Z,8.67
2024-02-15T05:34:49.082Z,7.30
2024-02-15T05:37:16.957Z,6.97
2024-02-15T05:39:44.189Z,7.53
2024-02-15T05:42:11.684Z,6.70
2024-02-15T05:44:38.675Z,7.10
2024-02-15T05:47:05.747Z,7.53
2024-02-15T05:49:32.795Z,6.50
2024-02-15T05:51:59.825Z,6.90
2024-02-15T05:54:26.753Z,7.10
2024-02-15T05:56:55.047Z,7.07
2024-02-15T05:59:22.349Z,7.83
2024-02-15T06:01:49.682Z,7.97
2024-02-15T06:04:17.945Z,8.37
2024-02-15T06:06:49.817Z,8.50
2024-02-15T06:09:17.688Z,8.93
2024-02-15T06:11:46.658Z,8.87
2024-02-15T06:14:13.944Z,9.00
2024-02-15T06:16:47.197Z,9.70
2024-02-15T06:19:15.829Z,8.97
2024-02-15T06:21:43.437Z,8.87
2024-02-15T06:24:11.579Z,10.20
2024-02-15T06:26:38.767Z,10.70
2024-02-15T06:29:24.216Z,9.37
2024-02-15T06:32:09.684Z,10.53
2024-02-15T06:34:55.676Z,10.23
2024-02-15T06:37:59.465Z,11.10
2024-02-15T06:40:26.351Z,10.87
2024-02-15T06:42:53.303Z,10.97
2024-02-15T06:45:20.961Z,11.10
2024-02-15T06:47:48.208Z,11.90
2024-02-15T06:50:15.528Z,11.60
2024-02-15T06:52:42.785Z,11.63
2024-02-15T06:55:13.065Z,10.17
2024-02-15T06:57:42.851Z,13.10
2024-02-15T07:00:16.846Z,11.27
2024-02-15T07:02:45.795Z,12.50
2024-02-15T07:05:13.005Z,13.20
2024-02-15T07:07:40.420Z,13.40
2024-02-15T07:10:08.122Z,12.40
2024-02-15T07:12:35.259Z,13.53
2024-02-15T07:15:03.015Z,13.27
2024-02-15T07:17:30.575Z,13.50
2024-02-15T07:19:57.591Z,14.83
2024-02-15T07:22:24.575Z,13.00
2024-02-15T07:24:51.521Z,15.20
2024-02-15T07:27:19.633Z,13.43
2024-02-15T07:29:46.607Z,12.90
2024-02-15T07:32:13.619Z,13.80
2024-02-15T07:34:40.588Z,13.10
2024-02-15T07:37:08.685Z,13.10
2024-02-15T07:39:37.375Z,14.20
2024-02-15T07:42:05.826Z,12.80
2024-02-15T07:44:33.548Z,13.77
2024-02-15T07:47:03.560Z,13.73
2024-02-15T07:49:30.653Z,13.97
2024-02-15T07:51:57.677Z,13.03
2024-02-15T07:54:25.484Z,13.67
2024-02-15T07:56:53.005Z,15.20
2024-02-15T07:59:20.901Z,13.17
2024-02-15T08:01:48.997Z,14.10
2024-02-15T08:04:18.158Z,14.20
2024-02-15T08:06:45.594Z,15.10
2024-02-15T08:09:15.089Z,14.37
2024-02-15T08:11:42.392Z,13.90
2024-02-15T08:14:14.012Z,15.00
2024-02-15T08:16:44.208Z,15.60
2024-02-15T08:19:12.314Z,16.50
2024-02-15T08:21:42.323Z,15.50
2024-02-15T08:24:10.489Z,15.47
2024-02-15T08:26:43.174Z,14.60
2024-02-15T08:29:10.602Z,15.13
2024-02-15T08:31:37.828Z,15.60
2024-02-15T08:34:07.069Z,16.07
2024-02-15T08:36:34.319Z,14.30
2024-02-15T08:39:01.983Z,16.20
2024-02-15T08:41:29.367Z,14.50
2024-02-15T08:43:59.147Z,15.60
2024-02-15T08:46:28.041Z,15.33
2024-02-15T08:48:55.134Z,16.53
2024-02-15T08:51:24.629Z,16.13
2024-02-15T08:53:52.506Z,16.70
2024-02-15T08:56:19.670Z,17.37
2024-02-15T08:58:46.640Z,18.33
2024-02-15T09:01:14.643Z,18.43
2024-02-15T09:03:41.862Z,19.50
2024-02-15T09:06:09.248Z,17.83
2024-02-15T09:08:36.589Z,21.20
2024-02-15T09:11:06.174Z,18.37
2024-02-15T09:13:34.947Z,18.60
2024-02-15T09:16:02.081Z,16.27
2024-02-15T09:18:29.119Z,18.30
2024-02-15T09:20:57.165Z,18.73
2024-02-15T09:23:24.821Z,19.03
2024-02-15T09:25:54.796Z,17.07
2024-02-15T09:28:24.903Z,18.40
2024-02-15T09:30:54.634Z,18.10
2024-02-15T09:33:22.147Z,19.30
2024-02-15T09:35:49.388Z,18.30
2024-02-15T09:38:18.019Z,17.87
2024-02-15T09:40:45.526Z,18.73
2024-02-15T09:43:16.133Z,20.33
2024-02-15T09:45:43.422Z,18.70
2024-02-15T09:48:14.293Z,19.33
2024-02-15T09:50:46.832Z,18.60
2024-02-15T09:53:16.118Z,18.73
2024-02-15T09:55:44.208Z,19.43
2024-02-15T09:58:13.639Z,18.37
2024-02-15T10:00:40.779Z,18.20
2024-02-15T10:03:08.490Z,19.27
2024-02-15T10:05:36.403Z,18.80
2024-02-15T10:08:04.378Z,17.87
2024-02-15T10:10:31.282Z,19.20
2024-02-15T10:13:01.933Z,17.77
2024-02-15T10:15:41.438Z,16.83
2024-02-15T10:18:13.577Z,16.80
2024-02-15T10:20:45.366Z,17.27
2024-02-15T10:23:14.391Z,17.50
2024-02-15T10:25:42.313Z,16.77
2024-02-15T10:28:16.564Z,16.10
2024-02-15T10:30:46.329Z,16.10
2024-02-15T10:33:31.186Z,15.00
2024-02-15T10:36:15.731Z,14.67
2024-02-15T10:38:43.285Z,15.40
2024-02-15T10:41:12.115Z,14.57
2024-02-15T10:43:39.645Z,14.43
2024-02-15T10:46:11.045Z,14.40
2024-02-15T10:48:39.181Z,12.17
2024-02-15T10:51:12.083Z,14.33
2024-02-15T10:53:48.608Z,12.63
2024-02-15T10:56:24.374Z,13.80
2024-02-15T10:58:52.159Z,12.27
2024-02-15T11:01:19.759Z,14.20
2024-02-15T11:03:53.966Z,13.47
2024-02-15T11:06:23.017Z,12.37
2024-02-15T11:08:51.035Z,13.40
2024-02-15T11:11:19.268Z,12.90
2024-02-15T11:13:48.883Z,11.80
2024-02-15T11:16:49.766Z,12.80
2024-02-15T11:19:38.466Z,13.13
2024-02-15T11:22:18.127Z,14.20
2024-02-15T11:24:54.112Z,14.10
2024-02-15T11:27:32.737Z,13.43
2024-02-15T11:30:11.494Z,13.00
2024-02-15T11:32:50.136Z,13.47
2024-02-15T11:35:21.417Z,13.53
2024-02-15T11:37:59.310Z,13.60
2024-02-15T11:40:31.106Z,13.30
2024-02-15T11:43:01.370Z,14.10
2024-02-15T11:45:39.664Z,13.63
2024-02-15T11:48:12.342Z,15.40
2024-02-15T11:50:40.946Z,13.00
2024-02-15T11:53:13.131Z,15.10
2024-02-15T11:55:42.729Z,12.97
2024-02-15T11:58:11.899Z,16.87
2024-02-15T12:00:59.078Z,13.90
2024-02-15T12:06:37.397Z,13.97
2024-02-15T12:09:23.473Z,13.23
2024-02-15T12:12:18.294Z,12.87
2024-02-15T12:15:04.058Z,13.90
2024-02-15T12:17:49.896Z,12.80
2024-02-15T12:20:16.978Z,12.40
2024-02-15T12:22:51.426Z,12.73
2024-02-15T12:25:22.167Z,13.03
2024-02-15T12:28:00.927Z,12.43
2024-02-15T12:30:37.458Z,12.90
2024-02-15T12:33:12.760Z,12.17
2024-02-15T12:35:39.982Z,13.20
2024-02-15T12:38:06.957Z,13.20
2024-02-15T12:40:37.387Z,13.87
2024-02-15T12:43:06.871Z,11.50
2024-02-15T12:45:37.920Z,13.00
2024-02-15T12:48:07.052Z,12.33
2024-02-15T12:50:37.742Z,12.57
2024-02-15T12:53:05.113Z,11.80
2024-02-15T12:55:36.234Z,11.13
2024-02-15T12:58:09.478Z,11.90
2024-02-15T13:00:41.000Z,12.20
2024-02-15T13:03:11.086Z,12.17
2024-02-15T13:05:39.566Z,13.30
2024-02-15T13:08:10.777Z,12.23
2024-02-15T13:10:40.336Z,12.13
2024-02-15T13:13:07.786Z,10.83
2024-02-15T13:15:35.442Z,10.23
2024-02-15T13:18:05.888Z,10.40
2024-02-15T13:20:34.109Z,10.80
2024-02-15T13:23:10.442Z,10.83
2024-02-15T13:25:40.469Z,10.17
2024-02-15T13:28:10.012Z,10.90
2024-02-15T13:30:37.516Z,10.73
2024-02-15T13:33:04.883Z,10.50
2024-02-15T13:35:32.917Z,11.30
2024-02-15T13:37:59.865Z,9.10
2024-02-15T13:40:28.898Z,10.00
2024-02-15T13:43:00.763Z,10.73
2024-02-15T13:45:38.355Z,10.40
2024-02-15T13:48:06.435Z,10.17
2024-02-15T13:50:33.983Z,9.47
2024-02-15T13:53:01.663Z,11.10
2024-02-15T13:55:30.079Z,9.70
2024-02-15T13:57:57.974Z,10.10
2024-02-15T14:00:30.894Z,9.97
2024-02-15T14:03:00.569Z,21.73
2024-02-15T14:05:30.284Z,14.20
2024-02-15T14:08:06.549Z,10.50
2024-02-15T14:10:37.366Z,9.70
2024-02-15T14:13:10.305Z,9.40
2024-02-15T14:15:41.686Z,11.13
2024-02-15T14:18:12.471Z,10.73
2024-02-15T14:20:39.995Z,9.97
2024-02-15T14:23:07.457Z,9.40
2024-02-15T14:25:34.835Z,8.53
2024-02-15T14:28:04.027Z,8.73
2024-02-15T14:30:49.552Z,8.63
2024-02-15T14:35:47.440Z,9.27
2024-02-15T14:38:14.955Z,8.80
2024-02-15T14:40:46.230Z,8.93
2024-02-15T14:43:19.723Z,7.77
2024-02-15T14:45:47.138Z,8.60
2024-02-15T14:48:15.150Z,8.13
2024-02-15T14:50:43.551Z,7.63
2024-02-15T14:53:10.724Z,7.10
2024-02-15T14:55:43.991Z,8.47
2024-02-15T14:58:13.455Z,10.10
2024-02-15T15:00:43.605Z,7.67
2024-02-15T15:03:13.107Z,9.90
2024-02-15T15:05:59.370Z,8.40
2024-02-15T15:08:45.313Z,7.73
2024-02-15T15:11:30.811Z,8.83
2024-02-15T15:13:57.792Z,7.90
2024-02-15T15:16:26.413Z,7.73
2024-02-15T15:18:53.740Z,7.07
2024-02-15T15:21:23.936Z,7.80
2024-02-15T15:23:51.248Z,9.80
2024-02-15T15:26:22.829Z,8.57
2024-02-15T15:28:51.032Z,8.50
2024-02-15T15:31:18.596Z,8.13
2024-02-15T15:33:46.074Z,8.80
2024-02-15T15:36:13.495Z,8.07
2024-02-15T15:38:40.706Z,9.20
2024-02-15T15:41:10.983Z,8.70
2024-02-15T15:43:38.765Z,7.93
2024-02-15T15:46:06.345Z,9.90
2024-02-15T15:48:37.965Z,9.27
2024-02-15T15:51:06.675Z,9.63
2024-02-15T15:53:35.271Z,9.80
2024-02-15T15:56:02.540Z,11.00
2024-02-15T15:58:29.578Z,12.00
2024-02-15T16:00:57.458Z,11.80
2024-02-15T16:03:24.560Z,11.27
2024-02-15T16:05:52.210Z,10.87
2024-02-15T16:08:19.147Z,9.73
2024-02-15T16:10:46.562Z,16.30
2024-02-15T16:13:13.995Z,18.80
2024-02-15T16:15:44.866Z,19.20
2024-02-15T16:18:11.951Z,22.87
2024-02-15T16:20:39.643Z,15.77
2024-02-15T16:23:07.569Z,14.00
2024-02-15T16:25:35.148Z,11.80
2024-02-15T16:28:03.392Z,10.67
2024-02-15T16:30:30.472Z,10.40
2024-02-15T16:32:57.579Z,9.10
2024-02-15T16:35:24.624Z,9.10
2024-02-15T16:37:51.561Z,8.80
2024-02-15T16:40:18.494Z,7.80
2024-02-15T16:42:48.739Z,7.90
2024-02-15T16:45:19.595Z,9.03
2024-02-15T16:47:57.092Z,7.60
2024-02-15T16:50:24.834Z,7.23
2024-02-15T16:52:52.697Z,7.40
2024-02-15T16:55:29.404Z,9.30
2024-02-15T16:58:04.411Z,9.10
2024-02-15T17:00:32.856Z,8.90
2024-02-15T17:03:00.095Z,8.90
2024-02-15T17:05:29.552Z,8.60
2024-02-15T17:08:00.265Z,7.70
2024-02-15T17:10:27.546Z,7.50
2024-02-15T17:12:54.889Z,7.20
2024-02-15T17:15:26.894Z,7.63
2024-02-15T17:17:55.596Z,7.93
2024-02-15T17:20:24.353Z,6.90
2024-02-15T17:22:51.624Z,6.87
2024-02-15T17:25:18.706Z,6.20
2024-02-15T17:27:45.682Z,6.40
2024-02-15T17:30:14.665Z,6.90
2024-02-15T17:32:44.413Z,6.90
2024-02-15T17:35:14.354Z,6.50
2024-02-15T17:37:42.243Z,7.40
2024-02-15T17:40:13.597Z,6.70
2024-02-15T17:42:42.290Z,7.60
2024-02-15T17:45:11.031Z,5.90
2024-02-15T17:47:40.609Z,6.90
2024-02-15T17:50:15.390Z,8.00
2024-02-15T17:52:44.937Z,8.70
2024-02-15T17:55:12.006Z,7.87
2024-02-15T17:57:39.775Z,7.33
2024-02-15T18:00:16.053Z,7.00
2024-02-15T18:02:50.029Z,7.77
2024-02-15T18:05:19.708Z,6.37
2024-02-15T18:07:47.403Z,7.30
2024-02-15T18:10:16.053Z,7.47
2024-02-15T18:12:43.333Z,8.83
2024-02-15T18:15:25.441Z,10.30
2024-02-15T18:17:57.587Z,9.60
2024-02-15T18:20:25.973Z,7.80
2024-02-15T18:22:53.250Z,8.57
2024-02-15T18:25:20.348Z,10.07
2024-02-15T18:27:48.008Z,9.50
2024-02-15T18:30:19.315Z,8.90
2024-02-15T18:32:47.217Z,7.90
2024-02-15T18:35:17.061Z,7.00
2024-02-15T18:37:44.685Z,6.27
2024-02-15T18:40:21.786Z,7.27
2024-02-15T18:42:52.047Z,7.60
2024-02-15T18:45:19.320Z,6.80
2024-02-15T18:47:46.658Z,6.40
2024-02-15T18:50:14.022Z,6.20
2024-02-15T18:52:42.102Z,6.50
2024-02-15T18:55:11.742Z,6.80
2024-02-15T18:57:38.707Z,7.00
2024-02-15T19:00:16.030Z,7.50
2024-02-15T19:02:53.196Z,7.43
2024-02-15T19:05:23.840Z,7.63
2024-02-15T19:07:52.118Z,5.70
2024-02-15T19:10:20.979Z,6.67
2024-02-15T19:12:48.086Z,9.37
2024-02-15T19:15:15.780Z,12.07
2024-02-15T19:17:42.942Z,12.40
2024-02-15T19:20:10.729Z,10.00
2024-02-15T19:22:41.677Z,8.90
2024-02-15T19:25:10.297Z,9.80
2024-02-15T19:27:37.932Z,7.00
2024-02-15T19:30:05.424Z,6.97
2024-02-15T19:32:32.386Z,5.43
2024-02-15T19:34:59.581Z,5.03
2024-02-15T19:37:31.172Z,8.20
2024-02-15T19:39:58.119Z,5.70
2024-02-15T19:42:25.097Z,4.70
2024-02-15T19:44:52.061Z,4.70
2024-02-15T19:47:21.445Z,4.70
2024-02-15T19:49:48.406Z,4.80
2024-02-15T19:52:16.781Z,5.13
2024-02-15T19:54:43.713Z,5.43
2024-02-15T19:57:10.677Z,4.80
2024-02-15T19:59:37.705Z,5.03
2024-02-15T20:02:04.857Z,4.50
2024-02-15T20:04:36.595Z,5.30
2024-02-15T20:07:04.714Z,4.30
2024-02-15T20:09:40.391Z,3.83
2024-02-15T20:12:15.006Z,5.40
2024-02-15T20:14:42.400Z,5.13
2024-02-15T20:17:11.236Z,4.50
2024-02-15T20:19:38.999Z,5.10
2024-02-15T20:22:06.066Z,4.50
2024-02-15T20:24:33.841Z,4.83
2024-02-15T20:27:01.538Z,5.10
2024-02-15T20:29:31.526Z,5.43
2024-02-15T20:31:59.585Z,5.10
2024-02-15T20:34:27.748Z,5.20
2024-02-15T20:36:54.861Z,5.00
2024-02-15T20:39:22.347Z,5.33
2024-02-15T20:41:50.229Z,5.23
2024-02-15T20:44:18.131Z,5.50
2024-02-15T20:46:45.633Z,4.90
2024-02-15T20:49:14.137Z,4.97
2024-02-15T20:51:41.297Z,5.77
2024-02-15T20:54:08.255Z,5.47
2024-02-15T20:56:37.620Z,5.93
2024-02-15T20:59:06.333Z,6.20
2024-02-15T21:01:34.963Z,6.10
2024-02-15T21:04:05.990Z,5.77
2024-02-15T21:06:33.428Z,4.27
2024-02-15T21:09:00.590Z,6.10
2024-02-15T21:11:27.612Z,5.77
2024-02-15T21:13:54.525Z,5.77
2024-02-15T21:16:22.856Z,6.73
2024-02-15T21:18:54.118Z,7.67
2024-02-15T21:21:23.269Z,7.00
2024-02-15T21:23:50.444Z,7.10
2024-02-15T21:26:17.679Z,8.97
2024-02-15T21:28:45.302Z,16.27
2024-02-15T21:31:16.487Z,9.57
2024-02-15T21:33:47.259Z,12.87
2024-02-15T21:36:15.414Z,8.73
2024-02-15T21:38:44.787Z,6.70
2024-02-15T21:41:12.649Z,6.60
2024-02-15T21:43:39.762Z,6.10
2024-02-15T21:46:06.753Z,5.50
2024-02-15T21:48:34.386Z,7.00
2024-02-15T21:51:01.580Z,6.23
2024-02-15T21:53:28.584Z,5.60
2024-02-15T21:55:55.549Z,5.63
2024-02-15T21:58:22.440Z,6.30
2024-02-15T22:00:49.385Z,6.20
2024-02-15T22:03:16.966Z,5.37
2024-02-15T22:05:44.024Z,4.90
2024-02-15T22:08:14.736Z,5.90
2024-02-15T22:10:42.493Z,5.27
2024-02-15T22:13:15.380Z,6.53
2024-02-15T22:15:42.513Z,5.90
2024-02-15T22:18:10.196Z,5.30
2024-02-15T22:20:37.222Z,6.10
2024-02-15T22:23:04.350Z,5.53
2024-02-15T22:25:34.060Z,5.37
2024-02-15T22:28:00.969Z,5.00
2024-02-15T22:30:28.063Z,5.67
2024-02-15T22:32:56.995Z,5.00
2024-02-15T22:35:24.826Z,5.30
2024-02-15T22:37:51.820Z,5.10
2024-02-15T22:40:18.908Z,5.37
2024-02-15T22:42:45.814Z,5.33
2024-02-15T22:45:14.474Z,5.10
2024-02-15T22:47:43.139Z,5.40
2024-02-15T22:50:10.448Z,4.97
2024-02-15T22:52:38.070Z,6.20
2024-02-15T22:55:05.360Z,4.93
2024-02-15T22:57:32.847Z,5.40
2024-02-15T23:00:00.341Z,5.80
2024-02-15T23:02:27.313Z,6.03
2024-02-15T23:04:54.339Z,6.10
2024-02-15T23:07:24.452Z,5.67
2024-02-15T23:09:51.609Z,5.53
2024-02-15T23:12:18.733Z,5.40
2024-02-15T23:14:45.847Z,5.87
2024-02-15T23:17:12.966Z,5.80
2024-02-15T23:19:40.600Z,7.37
2024-02-15T23:22:10.090Z,5.80
2024-02-15T23:24:38.558Z,5.87
2024-02-15T23:27:06.476Z,6.80
2024-02-15T23:29:33.667Z,6.30
2024-02-15T23:32:00.603Z,6.80
2024-02-15T23:34:27.554Z,5.87
2024-02-15T23:37:13.344Z,7.30
2024-02-15T23:39:58.801Z,6.43
2024-02-15T23:42:26.583Z,7.50
2024-02-15T23:44:54.463Z,7.03
2024-02-15T23:47:21.605Z,6.87
2024-02-15T23:49:49.128Z,7.50
2024-02-15T23:52:16.265Z,7.17
2024-02-15T23:54:43.335Z,7.90
2024-02-15T23:57:10.515Z,7.03
2024-02-15T23:59:37.522Z,7.77
